map of PAC home
Great Circle Mapper logo
PAC - Airport
Location
City:  Panamá City, Panamá
Name:Paitilla-Marcos A. Gelabert
ICAO / IATA:MPMG / PAC

Details
Type:Airport (Aerodrome, Airfield)
Use:Public/Civil, International (customs port of entry)
Latitude:8°58'24"N (8.973339)
Longitude:79°33'20"W (-79.555582)
Datum:WGS 1984
Elevation:31 ft (9 m)
Runways:1
Longest:5906 × 98 ft (1800 × 30 m), paved

Time
Time Zone:UTC-5
Local Time:

Weather
METAR:MPMG 222300Z 35005KT 1600 TSRA FEW012CB SCT014TCU BKN080 28/26 Q1009 RWY WATER PATCHES TEMPO 5000 TSRA
TAF:MPMG 221700Z 2218/2306 33005KT 9999 SCT018 PROB30
TEMPO 2221/2301 7000 -TSRA SCT016CB SCT090
BECMG 2301/2305 00000KT FEW018 SCT090

Related Locations
Nearby:
Farthest:CCK: 12110 mi / 19489 km
West Island (Pulau Panjang) [Cocos (Keeling) Islands], CC

Find:

   beyond  
but within

Other Information
Maps:
NOTAMs:
Links:
Sources:

  
flag of Panamá   

Sectional Chart

Flight Planning
at skyvector.com

Satellite Image

Google Maps Satellite View

 

Copyright © 2004-2014 Karl L. Swartz. All rights reserved.
The Great Circle Mapper name and logo are trademarks of the Great Circle Mapper.
All other trademarks mentioned herein belong to their respective owners.
Please see credits for attibutions and further copyright information.

  Follow gcmap on Facebook Follow gcmap on Twitter

hCard Microformat

Geo Microformat